createdAt,value
2018-07-20T00:03:08.292Z,4.90
2018-07-20T00:08:17.483Z,5.13
2018-07-20T00:13:26.773Z,5.50
2018-07-20T00:18:36.143Z,5.50
2018-07-20T00:23:45.731Z,5.80
2018-07-20T00:28:55.358Z,5.70
2018-07-20T00:34:03.911Z,5.40
2018-07-20T00:39:12.668Z,5.83
2018-07-20T00:44:21.958Z,5.70
2018-07-20T00:49:31.229Z,6.73
2018-07-20T00:54:40.826Z,6.43
2018-07-20T00:59:49.444Z,5.30
2018-07-20T01:04:58.555Z,5.80
2018-07-20T01:10:10.134Z,5.93
2018-07-20T01:15:19.394Z,5.70
2018-07-20T01:20:28.941Z,6.47
2018-07-20T01:25:37.472Z,6.43
2018-07-20T01:30:46.281Z,5.77
2018-07-20T01:35:55.746Z,5.97
2018-07-20T01:41:04.627Z,5.70
2018-07-20T01:46:13.643Z,5.77
2018-07-20T01:51:23.010Z,5.77
2018-07-20T01:56:32.191Z,5.80
2018-07-20T02:01:41.549Z,6.20
2018-07-20T02:06:50.829Z,6.13
2018-07-20T02:11:59.944Z,5.60
2018-07-20T02:17:08.927Z,6.13
2018-07-20T02:22:18.585Z,6.43
2018-07-20T02:27:27.705Z,6.20
2018-07-20T02:32:36.671Z,6.80
2018-07-20T02:37:45.304Z,6.67
2018-07-20T02:42:54.401Z,7.37
2018-07-20T02:48:03.607Z,6.00
2018-07-20T02:53:13.083Z,6.47
2018-07-20T02:58:22.317Z,7.67
2018-07-20T03:03:32.164Z,7.33
2018-07-20T03:08:41.034Z,6.80
2018-07-20T03:13:50.178Z,7.07
2018-07-20T03:18:59.287Z,7.97
2018-07-20T03:24:07.954Z,6.73
2018-07-20T03:29:17.392Z,6.80
2018-07-20T03:34:26.231Z,7.17
2018-07-20T03:39:35.327Z,6.17
2018-07-20T03:44:44.244Z,6.73
2018-07-20T03:49:53.589Z,7.70
2018-07-20T03:55:02.619Z,7.00
2018-07-20T04:00:12.044Z,6.80
2018-07-20T04:05:21.042Z,6.97
2018-07-20T04:10:30.060Z,6.67
2018-07-20T04:15:38.954Z,6.40
2018-07-20T04:20:48.557Z,6.87
2018-07-20T04:25:57.519Z,5.97
2018-07-20T04:31:07.054Z,5.80
2018-07-20T04:36:16.267Z,6.27
2018-07-20T04:41:25.149Z,5.43
2018-07-20T04:46:34.111Z,5.97
2018-07-20T04:51:43.294Z,5.90
2018-07-20T04:56:56.438Z,5.60
2018-07-20T05:02:05.862Z,5.27
2018-07-20T05:07:14.530Z,5.62
2018-07-20T05:12:23.568Z,5.80
2018-07-20T05:17:32.410Z,5.70
2018-07-20T05:22:41.468Z,5.37
2018-07-20T05:27:50.788Z,6.00
2018-07-20T05:33:00.283Z,5.47
2018-07-20T05:38:09.735Z,6.10
2018-07-20T05:43:18.809Z,5.10
2018-07-20T05:48:27.779Z,5.45
2018-07-20T05:53:36.861Z,5.05
2018-07-20T05:59:05.667Z,5.10
2018-07-20T06:04:15.231Z,5.25
2018-07-20T06:09:24.514Z,5.20
2018-07-20T06:14:33.708Z,5.30
2018-07-20T06:19:42.771Z,4.90
2018-07-20T06:24:51.903Z,4.47
2018-07-20T06:30:01.082Z,4.97
2018-07-20T06:35:10.103Z,5.10
2018-07-20T06:40:19.605Z,5.33
2018-07-20T06:45:29.080Z,4.92
2018-07-20T06:50:37.941Z,4.62
2018-07-20T06:55:47.213Z,4.25
2018-07-20T07:00:56.113Z,4.35
2018-07-20T07:06:05.457Z,4.33
2018-07-20T07:11:14.557Z,4.08
2018-07-20T07:16:23.390Z,4.40
2018-07-20T07:21:32.740Z,4.30
2018-07-20T07:26:42.840Z,4.55
2018-07-20T07:31:52.792Z,4.15
2018-07-20T07:37:01.559Z,4.15
2018-07-20T07:42:10.476Z,4.05
2018-07-20T07:47:19.413Z,4.40
2018-07-20T07:52:28.689Z,4.08
2018-07-20T07:57:37.856Z,4.20
2018-07-20T08:02:46.418Z,4.33
2018-07-20T08:07:55.416Z,4.67
2018-07-20T08:13:04.455Z,4.35
2018-07-20T08:18:13.625Z,4.35
2018-07-20T08:23:22.471Z,4.85
2018-07-20T08:28:31.856Z,4.30
2018-07-20T08:33:41.132Z,4.15
2018-07-20T08:38:49.669Z,4.60
2018-07-20T08:43:58.688Z,3.95
2018-07-20T08:49:07.597Z,3.87
2018-07-20T08:54:16.671Z,4.08
2018-07-20T08:59:26.579Z,3.67
2018-07-20T09:04:35.727Z,3.60
2018-07-20T09:09:44.748Z,3.58
2018-07-20T09:14:53.508Z,3.67
2018-07-20T09:20:02.631Z,3.22
2018-07-20T09:25:11.805Z,3.47
2018-07-20T09:30:20.763Z,3.62
2018-07-20T09:35:29.934Z,3.30
2018-07-20T09:40:39.007Z,3.15
2018-07-20T09:45:48.171Z,2.65
2018-07-20T09:50:57.031Z,3.10
2018-07-20T09:56:06.097Z,3.17
2018-07-20T10:01:15.477Z,3.00
2018-07-20T10:06:24.478Z,3.40
2018-07-20T10:11:34.067Z,3.35
2018-07-20T10:16:43.258Z,3.20
2018-07-20T10:21:52.294Z,3.72
2018-07-20T10:27:01.327Z,3.50
2018-07-20T10:32:10.992Z,3.65
2018-07-20T10:37:20.218Z,3.30
2018-07-20T10:42:29.167Z,3.30
2018-07-20T10:47:38.082Z,3.90
2018-07-20T10:52:47.022Z,4.12
2018-07-20T10:57:56.077Z,3.22
2018-07-20T11:03:04.972Z,3.33
2018-07-20T11:08:13.642Z,3.27
2018-07-20T11:13:22.752Z,3.70
2018-07-20T11:18:31.599Z,3.62
2018-07-20T11:23:41.952Z,3.75
2018-07-20T11:28:51.135Z,3.47
2018-07-20T11:34:00.109Z,3.67
2018-07-20T11:39:09.105Z,3.98
2018-07-20T11:44:18.451Z,3.40
2018-07-20T11:49:27.876Z,3.83
2018-07-20T11:54:36.765Z,4.25
2018-07-20T11:59:45.889Z,4.10
2018-07-20T12:04:54.762Z,4.42
2018-07-20T12:10:03.939Z,3.93
2018-07-20T12:15:13.515Z,3.90
2018-07-20T12:20:22.333Z,4.90
2018-07-20T12:25:31.268Z,4.33
2018-07-20T12:30:40.445Z,4.58
2018-07-20T12:35:49.591Z,4.53
2018-07-20T12:40:59.091Z,4.80
2018-07-20T12:46:07.978Z,5.08
2018-07-20T12:51:17.045Z,5.25
2018-07-20T12:56:26.095Z,5.42
2018-07-20T13:01:34.822Z,4.83
2018-07-20T13:06:44.136Z,4.47
2018-07-20T13:11:53.716Z,5.20
2018-07-20T13:17:03.359Z,4.17
2018-07-20T13:22:12.261Z,5.03
2018-07-20T13:27:21.336Z,4.53
2018-07-20T13:32:30.264Z,4.57
2018-07-20T13:37:39.528Z,4.33
2018-07-20T13:42:49.008Z,3.70
2018-07-20T13:47:58.470Z,3.80
2018-07-20T13:53:07.590Z,4.53
2018-07-20T13:58:16.657Z,4.28
2018-07-20T14:03:25.790Z,4.47
2018-07-20T14:08:35.320Z,4.10
2018-07-20T14:13:43.963Z,4.60
2018-07-20T14:18:53.278Z,5.30
2018-07-20T14:24:02.255Z,4.65
2018-07-20T14:29:11.125Z,4.65
2018-07-20T14:34:20.303Z,4.77
2018-07-20T14:39:29.805Z,4.37
2018-07-20T14:44:38.961Z,4.10
2018-07-20T14:49:48.338Z,4.15
2018-07-20T14:54:57.538Z,4.37
2018-07-20T15:00:06.627Z,4.45
2018-07-20T15:05:16.891Z,4.65
2018-07-20T15:10:25.576Z,4.47
2018-07-20T15:15:35.121Z,5.45
2018-07-20T15:20:44.708Z,4.50
2018-07-20T15:25:53.922Z,4.97
2018-07-20T15:31:02.861Z,4.20
2018-07-20T15:36:12.717Z,5.65
2018-07-20T15:41:21.720Z,5.53
2018-07-20T15:46:31.237Z,5.58
2018-07-20T15:53:35.206Z,4.62
2018-07-20T15:56:49.462Z,4.92
2018-07-20T16:01:58.562Z,5.03
2018-07-20T16:07:08.115Z,5.00
2018-07-20T16:12:17.767Z,5.10
2018-07-20T16:17:27.206Z,4.97
2018-07-20T16:22:36.187Z,4.97
2018-07-20T16:27:45.182Z,4.57
2018-07-20T16:32:54.401Z,4.90
2018-07-20T16:38:03.957Z,5.00
2018-07-20T16:43:13.538Z,4.80
2018-07-20T16:48:22.518Z,5.33
2018-07-20T16:53:31.795Z,4.90
2018-07-20T16:58:40.764Z,4.90
2018-07-20T17:03:50.452Z,5.20
2018-07-20T17:08:59.638Z,4.97
2018-07-20T17:14:09.247Z,5.53
2018-07-20T17:19:18.248Z,4.33
2018-07-20T17:24:28.102Z,4.63
2018-07-20T17:29:38.360Z,4.80
2018-07-20T17:34:48.011Z,5.60
2018-07-20T17:39:56.699Z,5.07
2018-07-20T17:45:05.968Z,6.03
2018-07-20T17:50:15.059Z,5.70
2018-07-20T18:00:31.046Z,4.30
2018-07-20T18:05:40.203Z,5.30
2018-07-20T18:10:49.846Z,5.77
2018-07-20T18:15:58.584Z,5.80
2018-07-20T18:21:08.098Z,5.37
2018-07-20T18:30:32.991Z,5.20
2018-07-20T18:35:41.912Z,4.97
2018-07-20T18:40:51.165Z,4.90
2018-07-20T18:46:00.495Z,4.83
2018-07-20T18:54:08.619Z,4.93
2018-07-20T18:59:17.463Z,5.83
2018-07-20T19:04:26.792Z,5.10
2018-07-20T19:09:36.091Z,4.97
2018-07-20T19:14:45.410Z,5.20
2018-07-20T19:19:54.630Z,4.53
2018-07-20T19:25:03.797Z,4.53
2018-07-20T19:30:12.806Z,4.03
2018-07-20T19:35:21.976Z,3.57
2018-07-20T19:40:31.201Z,3.93
2018-07-20T19:45:40.236Z,3.63
2018-07-20T19:50:49.389Z,3.20
2018-07-20T19:55:58.184Z,3.67
2018-07-20T20:01:07.509Z,2.93
2018-07-20T20:06:16.888Z,3.20
2018-07-20T20:11:25.478Z,2.90
2018-07-20T20:16:34.964Z,3.23
2018-07-20T20:21:43.671Z,2.70
2018-07-20T20:26:52.425Z,2.90
2018-07-20T20:32:01.001Z,3.30
2018-07-20T20:37:10.449Z,2.80
2018-07-20T20:42:19.157Z,2.80
2018-07-20T20:47:28.137Z,3.03
2018-07-20T20:52:38.050Z,2.60
2018-07-20T20:57:46.796Z,2.80
2018-07-20T21:02:55.382Z,3.20
2018-07-20T21:08:04.083Z,2.87
2018-07-20T21:13:13.311Z,2.97
2018-07-20T21:18:22.619Z,2.87
2018-07-20T21:23:31.153Z,3.20
2018-07-20T21:28:43.052Z,2.80
2018-07-20T21:33:51.738Z,2.83
2018-07-20T21:39:01.183Z,3.00
2018-07-20T21:44:13.868Z,2.93
2018-07-20T21:49:25.976Z,3.27
2018-07-20T21:54:35.423Z,3.33
2018-07-20T21:59:44.572Z,2.80
2018-07-20T22:04:53.913Z,3.00
2018-07-20T22:10:03.317Z,3.07
2018-07-20T22:15:12.377Z,3.47
2018-07-20T22:20:22.078Z,3.03
2018-07-20T22:25:30.939Z,3.40
2018-07-20T22:30:40.022Z,2.97
2018-07-20T22:35:48.994Z,3.47
2018-07-20T22:40:57.993Z,3.10
2018-07-20T22:46:07.103Z,3.10
2018-07-20T22:51:16.150Z,2.80
2018-07-20T23:01:41.666Z,2.93
2018-07-20T23:06:50.903Z,2.33
2018-07-20T23:11:59.852Z,2.73
2018-07-20T23:17:09.044Z,2.80
2018-07-20T23:22:18.454Z,2.63
2018-07-20T23:27:27.060Z,3.10
2018-07-20T23:32:35.638Z,3.07
2018-07-20T23:38:22.200Z,2.83
2018-07-20T23:43:33.607Z,3.70
2018-07-20T23:48:42.873Z,3.37
2018-07-20T23:53:51.873Z,2.70
2018-07-20T23:59:01.277Z,2.90
